sensor_id;sensor_type;location;lat;lon;timestamp;P1;durP1;ratioP1;P2;durP2;ratioP2
51384;SDS011;37478;55.682;37.462;2022-07-05T00:00:39;10.60;;;9.10;;
51384;SDS011;37478;55.682;37.462;2022-07-05T00:03:04;10.90;;;8.68;;
51384;SDS011;37478;55.682;37.462;2022-07-05T00:05:29;13.13;;;9.90;;
51384;SDS011;37478;55.682;37.462;2022-07-05T00:07:55;12.52;;;9.35;;
51384;SDS011;37478;55.682;37.462;2022-07-05T00:10:20;14.85;;;9.32;;
51384;SDS011;37478;55.682;37.462;2022-07-05T00:12:45;9.77;;;8.63;;
51384;SDS011;37478;55.682;37.462;2022-07-05T00:15:11;10.77;;;9.18;;
51384;SDS011;37478;55.682;37.462;2022-07-05T00:17:36;11.13;;;8.70;;
51384;SDS011;37478;55.682;37.462;2022-07-05T00:20:02;12.00;;;9.43;;
51384;SDS011;37478;55.682;37.462;2022-07-05T00:22:28;12.23;;;8.82;;
51384;SDS011;37478;55.682;37.462;2022-07-05T00:24:53;10.57;;;8.50;;
51384;SDS011;37478;55.682;37.462;2022-07-05T00:27:18;11.40;;;8.55;;
51384;SDS011;37478;55.682;37.462;2022-07-05T00:29:44;9.98;;;8.88;;
51384;SDS011;37478;55.682;37.462;2022-07-05T00:32:09;11.68;;;9.23;;
51384;SDS011;37478;55.682;37.462;2022-07-05T00:34:35;10.93;;;8.88;;
51384;SDS011;37478;55.682;37.462;2022-07-05T00:37:00;13.30;;;9.00;;
51384;SDS011;37478;55.682;37.462;2022-07-05T00:39:26;10.70;;;8.45;;
51384;SDS011;37478;55.682;37.462;2022-07-05T00:41:51;13.77;;;9.57;;
51384;SDS011;37478;55.682;37.462;2022-07-05T00:44:17;12.27;;;8.68;;
51384;SDS011;37478;55.682;37.462;2022-07-05T00:46:52;10.65;;;8.30;;
51384;SDS011;37478;55.682;37.462;2022-07-05T00:49:17;14.60;;;8.68;;
51384;SDS011;37478;55.682;37.462;2022-07-05T00:51:42;12.75;;;8.32;;
51384;SDS011;37478;55.682;37.462;2022-07-05T00:54:08;10.40;;;8.07;;
51384;SDS011;37478;55.682;37.462;2022-07-05T00:56:33;9.35;;;8.02;;
51384;SDS011;37478;55.682;37.462;2022-07-05T00:58:58;15.15;;;8.90;;
51384;SDS011;37478;55.682;37.462;2022-07-05T01:01:24;13.32;;;8.38;;
51384;SDS011;37478;55.682;37.462;2022-07-05T01:03:50;9.93;;;7.90;;
51384;SDS011;37478;55.682;37.462;2022-07-05T01:06:16;13.73;;;8.43;;
51384;SDS011;37478;55.682;37.462;2022-07-05T01:08:42;10.10;;;7.95;;
51384;SDS011;37478;55.682;37.462;2022-07-05T01:11:09;10.80;;;8.25;;
51384;SDS011;37478;55.682;37.462;2022-07-05T01:13:35;11.82;;;8.00;;
51384;SDS011;37478;55.682;37.462;2022-07-05T01:16:01;9.13;;;8.05;;
51384;SDS011;37478;55.682;37.462;2022-07-05T01:18:26;10.90;;;8.63;;
51384;SDS011;37478;55.682;37.462;2022-07-05T01:20:52;10.60;;;8.25;;
51384;SDS011;37478;55.682;37.462;2022-07-05T01:23:18;10.05;;;8.00;;
51384;SDS011;37478;55.682;37.462;2022-07-05T01:25:44;9.77;;;8.60;;
51384;SDS011;37478;55.682;37.462;2022-07-05T01:28:10;9.00;;;7.90;;
51384;SDS011;37478;55.682;37.462;2022-07-05T01:30:35;11.40;;;7.93;;
51384;SDS011;37478;55.682;37.462;2022-07-05T01:33:01;11.15;;;8.57;;
51384;SDS011;37478;55.682;37.462;2022-07-05T01:35:27;10.52;;;7.43;;
51384;SDS011;37478;55.682;37.462;2022-07-05T01:37:52;10.73;;;8.60;;
51384;SDS011;37478;55.682;37.462;2022-07-05T01:40:18;10.65;;;8.52;;
51384;SDS011;37478;55.682;37.462;2022-07-05T01:42:43;9.00;;;8.10;;
51384;SDS011;37478;55.682;37.462;2022-07-05T01:45:09;11.52;;;7.88;;
51384;SDS011;37478;55.682;37.462;2022-07-05T01:47:35;9.68;;;7.93;;
51384;SDS011;37478;55.682;37.462;2022-07-05T01:50:01;10.07;;;7.22;;
51384;SDS011;37478;55.682;37.462;2022-07-05T01:52:27;9.32;;;7.93;;
51384;SDS011;37478;55.682;37.462;2022-07-05T01:54:53;9.52;;;7.97;;
51384;SDS011;37478;55.682;37.462;2022-07-05T01:57:19;9.55;;;8.10;;
51384;SDS011;37478;55.682;37.462;2022-07-05T01:59:44;11.20;;;8.40;;
51384;SDS011;37478;55.682;37.462;2022-07-05T02:02:09;14.27;;;9.00;;
51384;SDS011;37478;55.682;37.462;2022-07-05T02:04:35;9.07;;;7.88;;
51384;SDS011;37478;55.682;37.462;2022-07-05T02:07:04;11.45;;;8.60;;
51384;SDS011;37478;55.682;37.462;2022-07-05T02:09:30;11.55;;;9.35;;
51384;SDS011;37478;55.682;37.462;2022-07-05T02:11:55;28.45;;;8.82;;
51384;SDS011;37478;55.682;37.462;2022-07-05T02:14:21;9.15;;;7.38;;
51384;SDS011;37478;55.682;37.462;2022-07-05T02:16:46;8.32;;;6.88;;
51384;SDS011;37478;55.682;37.462;2022-07-05T02:19:12;13.25;;;7.65;;
51384;SDS011;37478;55.682;37.462;2022-07-05T02:21:37;10.98;;;8.70;;
51384;SDS011;37478;55.682;37.462;2022-07-05T02:24:02;12.85;;;7.68;;
51384;SDS011;37478;55.682;37.462;2022-07-05T02:26:28;9.90;;;7.63;;
51384;SDS011;37478;55.682;37.462;2022-07-05T02:28:53;11.15;;;8.05;;
51384;SDS011;37478;55.682;37.462;2022-07-05T02:31:18;8.43;;;7.60;;
51384;SDS011;37478;55.682;37.462;2022-07-05T02:33:45;9.13;;;7.40;;
51384;SDS011;37478;55.682;37.462;2022-07-05T02:36:11;12.23;;;8.93;;
51384;SDS011;37478;55.682;37.462;2022-07-05T02:38:36;9.45;;;7.40;;
51384;SDS011;37478;55.682;37.462;2022-07-05T02:41:05;10.68;;;7.30;;
51384;SDS011;37478;55.682;37.462;2022-07-05T02:43:31;14.13;;;8.65;;
51384;SDS011;37478;55.682;37.462;2022-07-05T02:45:56;10.32;;;7.93;;
51384;SDS011;37478;55.682;37.462;2022-07-05T02:48:22;10.43;;;8.38;;
51384;SDS011;37478;55.682;37.462;2022-07-05T02:50:47;9.60;;;7.43;;
51384;SDS011;37478;55.682;37.462;2022-07-05T02:53:12;12.98;;;8.45;;
51384;SDS011;37478;55.682;37.462;2022-07-05T02:55:38;10.07;;;7.65;;
51384;SDS011;37478;55.682;37.462;2022-07-05T02:58:03;10.57;;;7.05;;
51384;SDS011;37478;55.682;37.462;2022-07-05T03:00:28;11.23;;;7.63;;
51384;SDS011;37478;55.682;37.462;2022-07-05T03:02:54;9.02;;;7.82;;
51384;SDS011;37478;55.682;37.462;2022-07-05T03:05:19;8.40;;;7.22;;
51384;SDS011;37478;55.682;37.462;2022-07-05T03:07:44;9.63;;;7.72;;
51384;SDS011;37478;55.682;37.462;2022-07-05T03:10:10;10.85;;;7.05;;
51384;SDS011;37478;55.682;37.462;2022-07-05T03:12:35;9.18;;;7.18;;
51384;SDS011;37478;55.682;37.462;2022-07-05T03:15:00;9.23;;;7.75;;
51384;SDS011;37478;55.682;37.462;2022-07-05T03:17:26;9.50;;;7.35;;
51384;SDS011;37478;55.682;37.462;2022-07-05T03:19:51;10.05;;;7.85;;
51384;SDS011;37478;55.682;37.462;2022-07-05T03:22:16;8.30;;;7.35;;
51384;SDS011;37478;55.682;37.462;2022-07-05T03:24:42;9.65;;;7.65;;
51384;SDS011;37478;55.682;37.462;2022-07-05T03:27:07;9.25;;;8.27;;
51384;SDS011;37478;55.682;37.462;2022-07-05T03:29:32;11.60;;;8.57;;
51384;SDS011;37478;55.682;37.462;2022-07-05T03:31:57;11.75;;;7.32;;
51384;SDS011;37478;55.682;37.462;2022-07-05T03:34:23;13.27;;;7.60;;
51384;SDS011;37478;55.682;37.462;2022-07-05T03:36:48;9.50;;;7.38;;
51384;SDS011;37478;55.682;37.462;2022-07-05T03:39:13;10.00;;;7.57;;
51384;SDS011;37478;55.682;37.462;2022-07-05T03:41:39;10.10;;;8.00;;
51384;SDS011;37478;55.682;37.462;2022-07-05T03:44:04;9.23;;;7.18;;
51384;SDS011;37478;55.682;37.462;2022-07-05T03:46:29;10.07;;;7.50;;
51384;SDS011;37478;55.682;37.462;2022-07-05T03:48:55;8.18;;;7.22;;
51384;SDS011;37478;55.682;37.462;2022-07-05T03:51:20;8.50;;;7.60;;
51384;SDS011;37478;55.682;37.462;2022-07-05T03:53:45;12.30;;;8.60;;
51384;SDS011;37478;55.682;37.462;2022-07-05T03:56:11;12.75;;;7.50;;
51384;SDS011;37478;55.682;37.462;2022-07-05T03:58:36;10.98;;;8.65;;
51384;SDS011;37478;55.682;37.462;2022-07-05T04:01:02;10.35;;;7.95;;
51384;SDS011;37478;55.682;37.462;2022-07-05T04:03:27;8.65;;;7.75;;
51384;SDS011;37478;55.682;37.462;2022-07-05T04:05:52;9.75;;;7.65;;
51384;SDS011;37478;55.682;37.462;2022-07-05T04:08:17;11.73;;;8.05;;
51384;SDS011;37478;55.682;37.462;2022-07-05T04:10:43;9.05;;;7.50;;
51384;SDS011;37478;55.682;37.462;2022-07-05T04:13:08;13.90;;;8.43;;
51384;SDS011;37478;55.682;37.462;2022-07-05T04:15:33;13.20;;;8.27;;
51384;SDS011;37478;55.682;37.462;2022-07-05T04:17:59;10.90;;;7.20;;
51384;SDS011;37478;55.682;37.462;2022-07-05T04:20:24;10.23;;;7.45;;
51384;SDS011;37478;55.682;37.462;2022-07-05T04:22:49;12.70;;;8.60;;
51384;SDS011;37478;55.682;37.462;2022-07-05T04:25:15;10.43;;;8.50;;
51384;SDS011;37478;55.682;37.462;2022-07-05T04:27:51;10.38;;;8.05;;
51384;SDS011;37478;55.682;37.462;2022-07-05T04:30:17;11.07;;;7.90;;
51384;SDS011;37478;55.682;37.462;2022-07-05T04:32:43;12.07;;;8.52;;
51384;SDS011;37478;55.682;37.462;2022-07-05T04:35:09;12.45;;;7.97;;
51384;SDS011;37478;55.682;37.462;2022-07-05T04:37:35;12.27;;;8.32;;
51384;SDS011;37478;55.682;37.462;2022-07-05T04:40:00;12.40;;;8.43;;
51384;SDS011;37478;55.682;37.462;2022-07-05T04:42:26;10.10;;;8.60;;
51384;SDS011;37478;55.682;37.462;2022-07-05T04:44:51;10.13;;;8.15;;
51384;SDS011;37478;55.682;37.462;2022-07-05T04:47:16;12.77;;;8.10;;
51384;SDS011;37478;55.682;37.462;2022-07-05T04:49:42;13.57;;;8.27;;
51384;SDS011;37478;55.682;37.462;2022-07-05T04:52:07;11.25;;;8.13;;
51384;SDS011;37478;55.682;37.462;2022-07-05T04:54:32;13.68;;;8.75;;
51384;SDS011;37478;55.682;37.462;2022-07-05T04:56:58;11.25;;;8.88;;
51384;SDS011;37478;55.682;37.462;2022-07-05T04:59:23;13.23;;;7.60;;
51384;SDS011;37478;55.682;37.462;2022-07-05T05:01:48;11.50;;;8.25;;
51384;SDS011;37478;55.682;37.462;2022-07-05T05:04:14;15.65;;;8.10;;
51384;SDS011;37478;55.682;37.462;2022-07-05T05:06:39;13.15;;;8.68;;
51384;SDS011;37478;55.682;37.462;2022-07-05T05:09:04;11.77;;;8.95;;
51384;SDS011;37478;55.682;37.462;2022-07-05T05:11:30;12.68;;;8.82;;
51384;SDS011;37478;55.682;37.462;2022-07-05T05:13:55;9.73;;;8.70;;
51384;SDS011;37478;55.682;37.462;2022-07-05T05:16:20;11.88;;;9.40;;
51384;SDS011;37478;55.682;37.462;2022-07-05T05:18:46;8.68;;;7.78;;
51384;SDS011;37478;55.682;37.462;2022-07-05T05:21:11;13.18;;;9.32;;
51384;SDS011;37478;55.682;37.462;2022-07-05T05:23:37;11.70;;;8.60;;
51384;SDS011;37478;55.682;37.462;2022-07-05T05:26:02;14.43;;;8.57;;
51384;SDS011;37478;55.682;37.462;2022-07-05T05:28:27;15.55;;;8.50;;
51384;SDS011;37478;55.682;37.462;2022-07-05T05:30:53;11.32;;;8.30;;
51384;SDS011;37478;55.682;37.462;2022-07-05T05:33:18;12.27;;;8.35;;
51384;SDS011;37478;55.682;37.462;2022-07-05T05:35:43;12.88;;;8.45;;
51384;SDS011;37478;55.682;37.462;2022-07-05T05:38:09;11.95;;;7.75;;
51384;SDS011;37478;55.682;37.462;2022-07-05T05:40:34;10.50;;;8.50;;
51384;SDS011;37478;55.682;37.462;2022-07-05T05:43:02;12.70;;;8.30;;
51384;SDS011;37478;55.682;37.462;2022-07-05T05:45:28;10.82;;;8.68;;
51384;SDS011;37478;55.682;37.462;2022-07-05T05:47:57;14.07;;;8.70;;
51384;SDS011;37478;55.682;37.462;2022-07-05T05:50:32;10.07;;;7.90;;
51384;SDS011;37478;55.682;37.462;2022-07-05T05:57:48;9.25;;;7.97;;
51384;SDS011;37478;55.682;37.462;2022-07-05T06:00:14;13.60;;;7.93;;
51384;SDS011;37478;55.682;37.462;2022-07-05T06:02:40;10.73;;;8.15;;
51384;SDS011;37478;55.682;37.462;2022-07-05T06:05:05;10.45;;;8.32;;
51384;SDS011;37478;55.682;37.462;2022-07-05T06:07:31;11.00;;;7.82;;
51384;SDS011;37478;55.682;37.462;2022-07-05T06:09:56;14.52;;;8.27;;
51384;SDS011;37478;55.682;37.462;2022-07-05T06:12:21;11.20;;;8.15;;
51384;SDS011;37478;55.682;37.462;2022-07-05T06:14:47;9.93;;;8.32;;
51384;SDS011;37478;55.682;37.462;2022-07-05T06:17:12;10.88;;;8.18;;
51384;SDS011;37478;55.682;37.462;2022-07-05T06:19:37;10.20;;;8.20;;
51384;SDS011;37478;55.682;37.462;2022-07-05T06:22:03;12.90;;;7.80;;
51384;SDS011;37478;55.682;37.462;2022-07-05T06:24:28;11.95;;;8.13;;
51384;SDS011;37478;55.682;37.462;2022-07-05T06:26:53;11.27;;;7.88;;
51384;SDS011;37478;55.682;37.462;2022-07-05T06:29:19;13.57;;;8.05;;
51384;SDS011;37478;55.682;37.462;2022-07-05T06:31:44;12.80;;;8.25;;
51384;SDS011;37478;55.682;37.462;2022-07-05T06:34:09;10.55;;;8.30;;
51384;SDS011;37478;55.682;37.462;2022-07-05T06:36:34;14.07;;;8.07;;
51384;SDS011;37478;55.682;37.462;2022-07-05T06:39:00;11.40;;;8.43;;
51384;SDS011;37478;55.682;37.462;2022-07-05T06:41:26;10.73;;;8.55;;
51384;SDS011;37478;55.682;37.462;2022-07-05T06:43:51;13.88;;;8.13;;
51384;SDS011;37478;55.682;37.462;2022-07-05T06:46:16;11.73;;;8.10;;
51384;SDS011;37478;55.682;37.462;2022-07-05T06:48:41;11.30;;;8.40;;
51384;SDS011;37478;55.682;37.462;2022-07-05T06:51:07;14.00;;;9.35;;
51384;SDS011;37478;55.682;37.462;2022-07-05T06:53:32;11.13;;;8.65;;
51384;SDS011;37478;55.682;37.462;2022-07-05T06:55:57;11.82;;;8.55;;
51384;SDS011;37478;55.682;37.462;2022-07-05T06:58:23;11.48;;;9.35;;
51384;SDS011;37478;55.682;37.462;2022-07-05T07:00:49;10.07;;;9.00;;
51384;SDS011;37478;55.682;37.462;2022-07-05T07:03:14;9.98;;;8.52;;
51384;SDS011;37478;55.682;37.462;2022-07-05T07:05:40;10.60;;;8.77;;
51384;SDS011;37478;55.682;37.462;2022-07-05T07:08:05;14.25;;;9.45;;
51384;SDS011;37478;55.682;37.462;2022-07-05T07:10:49;12.02;;;8.93;;
51384;SDS011;37478;55.682;37.462;2022-07-05T07:13:14;12.52;;;8.38;;
51384;SDS011;37478;55.682;37.462;2022-07-05T07:15:39;11.13;;;8.25;;
51384;SDS011;37478;55.682;37.462;2022-07-05T07:18:06;14.32;;;8.48;;
51384;SDS011;37478;55.682;37.462;2022-07-05T07:20:31;11.73;;;8.90;;
51384;SDS011;37478;55.682;37.462;2022-07-05T07:22:57;9.88;;;8.70;;
51384;SDS011;37478;55.682;37.462;2022-07-05T07:25:22;10.95;;;8.75;;
51384;SDS011;37478;55.682;37.462;2022-07-05T07:27:51;12.65;;;8.93;;
51384;SDS011;37478;55.682;37.462;2022-07-05T07:30:18;13.70;;;8.93;;
51384;SDS011;37478;55.682;37.462;2022-07-05T07:32:44;14.25;;;8.52;;
51384;SDS011;37478;55.682;37.462;2022-07-05T07:35:09;11.20;;;9.52;;
51384;SDS011;37478;55.682;37.462;2022-07-05T07:37:35;12.10;;;8.68;;
51384;SDS011;37478;55.682;37.462;2022-07-05T07:40:01;10.63;;;8.95;;
51384;SDS011;37478;55.682;37.462;2022-07-05T07:42:26;11.13;;;8.60;;
51384;SDS011;37478;55.682;37.462;2022-07-05T07:44:52;11.90;;;9.80;;
51384;SDS011;37478;55.682;37.462;2022-07-05T07:47:17;10.43;;;9.32;;
51384;SDS011;37478;55.682;37.462;2022-07-05T07:49:43;11.02;;;8.45;;
51384;SDS011;37478;55.682;37.462;2022-07-05T07:52:08;11.82;;;8.95;;
51384;SDS011;37478;55.682;37.462;2022-07-05T07:54:33;10.33;;;8.60;;
51384;SDS011;37478;55.682;37.462;2022-07-05T07:56:59;11.07;;;8.77;;
51384;SDS011;37478;55.682;37.462;2022-07-05T07:59:33;9.77;;;8.80;;
51384;SDS011;37478;55.682;37.462;2022-07-05T08:01:58;9.95;;;8.95;;
51384;SDS011;37478;55.682;37.462;2022-07-05T08:04:24;10.90;;;8.70;;
51384;SDS011;37478;55.682;37.462;2022-07-05T08:06:49;11.25;;;8.57;;
51384;SDS011;37478;55.682;37.462;2022-07-05T08:09:14;10.38;;;7.95;;
51384;SDS011;37478;55.682;37.462;2022-07-05T08:11:40;13.52;;;9.15;;
51384;SDS011;37478;55.682;37.462;2022-07-05T08:14:05;14.15;;;9.40;;
51384;SDS011;37478;55.682;37.462;2022-07-05T08:16:31;10.02;;;9.02;;
51384;SDS011;37478;55.682;37.462;2022-07-05T08:18:56;10.93;;;8.85;;
51384;SDS011;37478;55.682;37.462;2022-07-05T08:21:40;9.68;;;8.30;;
51384;SDS011;37478;55.682;37.462;2022-07-05T08:24:06;9.77;;;8.77;;
51384;SDS011;37478;55.682;37.462;2022-07-05T08:26:32;22.52;;;9.90;;
51384;SDS011;37478;55.682;37.462;2022-07-05T08:28:58;13.30;;;9.23;;
51384;SDS011;37478;55.682;37.462;2022-07-05T08:31:24;13.65;;;8.57;;
51384;SDS011;37478;55.682;37.462;2022-07-05T08:33:50;12.43;;;9.45;;
51384;SDS011;37478;55.682;37.462;2022-07-05T08:36:16;12.00;;;9.32;;
51384;SDS011;37478;55.682;37.462;2022-07-05T08:38:41;13.68;;;9.38;;
51384;SDS011;37478;55.682;37.462;2022-07-05T08:41:07;9.38;;;8.38;;
51384;SDS011;37478;55.682;37.462;2022-07-05T08:43:32;9.48;;;8.55;;
51384;SDS011;37478;55.682;37.462;2022-07-05T08:46:00;12.52;;;8.18;;
51384;SDS011;37478;55.682;37.462;2022-07-05T08:48:25;9.82;;;8.35;;
51384;SDS011;37478;55.682;37.462;2022-07-05T08:50:52;11.50;;;8.55;;
51384;SDS011;37478;55.682;37.462;2022-07-05T08:53:19;9.40;;;8.50;;
51384;SDS011;37478;55.682;37.462;2022-07-05T08:55:45;10.98;;;8.50;;
51384;SDS011;37478;55.682;37.462;2022-07-05T08:58:10;11.02;;;8.50;;
51384;SDS011;37478;55.682;37.462;2022-07-05T09:00:36;10.75;;;8.52;;
51384;SDS011;37478;55.682;37.462;2022-07-05T09:03:02;12.15;;;8.70;;
51384;SDS011;37478;55.682;37.462;2022-07-05T09:05:27;15.00;;;8.60;;
51384;SDS011;37478;55.682;37.462;2022-07-05T09:08:00;14.05;;;8.82;;
51384;SDS011;37478;55.682;37.462;2022-07-05T09:10:26;11.88;;;8.45;;
51384;SDS011;37478;55.682;37.462;2022-07-05T09:12:52;11.57;;;8.95;;
51384;SDS011;37478;55.682;37.462;2022-07-05T09:15:17;9.65;;;8.68;;
51384;SDS011;37478;55.682;37.462;2022-07-05T09:17:45;10.90;;;9.80;;
51384;SDS011;37478;55.682;37.462;2022-07-05T09:20:12;11.60;;;9.52;;
51384;SDS011;37478;55.682;37.462;2022-07-05T09:22:44;11.95;;;10.43;;
51384;SDS011;37478;55.682;37.462;2022-07-05T09:25:16;12.85;;;10.02;;
51384;SDS011;37478;55.682;37.462;2022-07-05T09:27:46;15.75;;;10.75;;
51384;SDS011;37478;55.682;37.462;2022-07-05T09:30:12;10.93;;;9.07;;
51384;SDS011;37478;55.682;37.462;2022-07-05T09:32:48;10.85;;;9.25;;
51384;SDS011;37478;55.682;37.462;2022-07-05T09:35:19;11.50;;;10.13;;
51384;SDS011;37478;55.682;37.462;2022-07-05T09:37:45;12.13;;;10.18;;
51384;SDS011;37478;55.682;37.462;2022-07-05T09:40:10;12.43;;;9.57;;
51384;SDS011;37478;55.682;37.462;2022-07-05T09:42:35;11.75;;;10.40;;
51384;SDS011;37478;55.682;37.462;2022-07-05T09:45:01;11.82;;;10.32;;
51384;SDS011;37478;55.682;37.462;2022-07-05T09:47:27;10.82;;;9.77;;
51384;SDS011;37478;55.682;37.462;2022-07-05T09:49:53;11.80;;;10.13;;
51384;SDS011;37478;55.682;37.462;2022-07-05T09:52:53;12.85;;;9.27;;
51384;SDS011;37478;55.682;37.462;2022-07-05T09:55:11;12.32;;;10.32;;
51384;SDS011;37478;55.682;37.462;2022-07-05T09:57:37;13.23;;;10.00;;
51384;SDS011;37478;55.682;37.462;2022-07-05T10:00:10;16.58;;;10.02;;
51384;SDS011;37478;55.682;37.462;2022-07-05T10:05:34;12.38;;;10.40;;
51384;SDS011;37478;55.682;37.462;2022-07-05T10:07:56;12.55;;;10.05;;
51384;SDS011;37478;55.682;37.462;2022-07-05T10:10:25;13.25;;;11.20;;
51384;SDS011;37478;55.682;37.462;2022-07-05T10:12:55;11.07;;;10.05;;
51384;SDS011;37478;55.682;37.462;2022-07-05T10:15:21;11.63;;;10.52;;
51384;SDS011;37478;55.682;37.462;2022-07-05T10:18:20;12.52;;;11.25;;
51384;SDS011;37478;55.682;37.462;2022-07-05T10:20:45;12.48;;;10.45;;
51384;SDS011;37478;55.682;37.462;2022-07-05T10:25:36;12.23;;;9.97;;
51384;SDS011;37478;55.682;37.462;2022-07-05T10:28:02;12.98;;;10.70;;
51384;SDS011;37478;55.682;37.462;2022-07-05T10:30:27;11.27;;;10.07;;
51384;SDS011;37478;55.682;37.462;2022-07-05T10:32:54;12.32;;;10.35;;
51384;SDS011;37478;55.682;37.462;2022-07-05T10:35:19;12.52;;;10.57;;
51384;SDS011;37478;55.682;37.462;2022-07-05T10:37:46;11.15;;;10.05;;
51384;SDS011;37478;55.682;37.462;2022-07-05T10:40:13;11.35;;;10.25;;
51384;SDS011;37478;55.682;37.462;2022-07-05T10:42:42;11.27;;;10.20;;
51384;SDS011;37478;55.682;37.462;2022-07-05T10:50:54;16.30;;;11.43;;
51384;SDS011;37478;55.682;37.462;2022-07-05T10:53:24;13.18;;;9.70;;
51384;SDS011;37478;55.682;37.462;2022-07-05T11:03:43;10.48;;;9.25;;
51384;SDS011;37478;55.682;37.462;2022-07-05T11:06:22;10.60;;;9.35;;
51384;SDS011;37478;55.682;37.462;2022-07-05T11:11:25;10.13;;;9.13;;
51384;SDS011;37478;55.682;37.462;2022-07-05T11:13:51;11.45;;;10.25;;
51384;SDS011;37478;55.682;37.462;2022-07-05T11:16:25;10.70;;;9.70;;
51384;SDS011;37478;55.682;37.462;2022-07-05T11:18:52;9.70;;;8.63;;
51384;SDS011;37478;55.682;37.462;2022-07-05T11:21:18;10.52;;;9.50;;
51384;SDS011;37478;55.682;37.462;2022-07-05T11:23:44;12.25;;;9.77;;
51384;SDS011;37478;55.682;37.462;2022-07-05T11:26:11;11.55;;;10.25;;
51384;SDS011;37478;55.682;37.462;2022-07-05T11:28:42;10.45;;;9.45;;
51384;SDS011;37478;55.682;37.462;2022-07-05T11:31:08;10.93;;;9.77;;
51384;SDS011;37478;55.682;37.462;2022-07-05T11:33:43;11.65;;;9.55;;
51384;SDS011;37478;55.682;37.462;2022-07-05T11:36:22;11.05;;;9.95;;
51384;SDS011;37478;55.682;37.462;2022-07-05T11:41:33;14.75;;;12.13;;
51384;SDS011;37478;55.682;37.462;2022-07-05T11:43:58;17.88;;;12.40;;
51384;SDS011;37478;55.682;37.462;2022-07-05T11:46:24;17.33;;;12.07;;
51384;SDS011;37478;55.682;37.462;2022-07-05T11:48:50;13.63;;;12.30;;
51384;SDS011;37478;55.682;37.462;2022-07-05T11:51:15;16.90;;;12.57;;
51384;SDS011;37478;55.682;37.462;2022-07-05T11:53:40;14.00;;;11.32;;
51384;SDS011;37478;55.682;37.462;2022-07-05T11:56:07;15.82;;;11.82;;
51384;SDS011;37478;55.682;37.462;2022-07-05T11:58:33;17.52;;;11.98;;
51384;SDS011;37478;55.682;37.462;2022-07-05T12:00:58;14.27;;;12.32;;
51384;SDS011;37478;55.682;37.462;2022-07-05T12:03:24;17.65;;;10.73;;
51384;SDS011;37478;55.682;37.462;2022-07-05T12:05:50;16.63;;;11.13;;
51384;SDS011;37478;55.682;37.462;2022-07-05T12:08:21;16.67;;;10.43;;
51384;SDS011;37478;55.682;37.462;2022-07-05T12:10:47;16.00;;;10.27;;
51384;SDS011;37478;55.682;37.462;2022-07-05T12:13:35;11.80;;;9.77;;
51384;SDS011;37478;55.682;37.462;2022-07-05T12:18:32;12.60;;;10.30;;
51384;SDS011;37478;55.682;37.462;2022-07-05T12:21:13;16.63;;;10.27;;
51384;SDS011;37478;55.682;37.462;2022-07-05T12:23:41;24.02;;;11.02;;
51384;SDS011;37478;55.682;37.462;2022-07-05T12:26:06;12.90;;;10.80;;
51384;SDS011;37478;55.682;37.462;2022-07-05T12:28:31;14.75;;;10.48;;
51384;SDS011;37478;55.682;37.462;2022-07-05T12:30:57;14.90;;;10.77;;
51384;SDS011;37478;55.682;37.462;2022-07-05T12:33:23;21.77;;;11.98;;
51384;SDS011;37478;55.682;37.462;2022-07-05T12:35:48;14.48;;;10.27;;
51384;SDS011;37478;55.682;37.462;2022-07-05T12:38:19;11.82;;;10.18;;
51384;SDS011;37478;55.682;37.462;2022-07-05T12:40:45;17.52;;;11.88;;
51384;SDS011;37478;55.682;37.462;2022-07-05T12:43:15;39.30;;;13.93;;
51384;SDS011;37478;55.682;37.462;2022-07-05T12:45:41;49.63;;;14.55;;
51384;SDS011;37478;55.682;37.462;2022-07-05T12:48:07;43.58;;;13.15;;
51384;SDS011;37478;55.682;37.462;2022-07-05T12:53:10;21.20;;;11.60;;
51384;SDS011;37478;55.682;37.462;2022-07-05T12:56:13;22.40;;;10.93;;
51384;SDS011;37478;55.682;37.462;2022-07-05T12:58:57;21.30;;;10.23;;
51384;SDS011;37478;55.682;37.462;2022-07-05T13:03:54;23.45;;;10.20;;
51384;SDS011;37478;55.682;37.462;2022-07-05T13:06:20;16.40;;;9.68;;
51384;SDS011;37478;55.682;37.462;2022-07-05T13:08:55;19.48;;;7.63;;
51384;SDS011;37478;55.682;37.462;2022-07-05T13:11:30;10.82;;;6.55;;
51384;SDS011;37478;55.682;37.462;2022-07-05T13:13:56;9.90;;;7.03;;
51384;SDS011;37478;55.682;37.462;2022-07-05T13:16:21;15.63;;;9.18;;
51384;SDS011;37478;55.682;37.462;2022-07-05T13:18:46;12.20;;;9.70;;
51384;SDS011;37478;55.682;37.462;2022-07-05T13:21:12;15.93;;;10.02;;
51384;SDS011;37478;55.682;37.462;2022-07-05T13:23:37;15.63;;;9.90;;
51384;SDS011;37478;55.682;37.462;2022-07-05T13:26:02;14.90;;;9.30;;
51384;SDS011;37478;55.682;37.462;2022-07-05T13:28:28;15.80;;;9.88;;
51384;SDS011;37478;55.682;37.462;2022-07-05T13:30:53;13.45;;;9.77;;
51384;SDS011;37478;55.682;37.462;2022-07-05T13:33:18;23.80;;;9.20;;
51384;SDS011;37478;55.682;37.462;2022-07-05T13:35:43;12.60;;;8.75;;
51384;SDS011;37478;55.682;37.462;2022-07-05T13:38:09;16.05;;;9.40;;
51384;SDS011;37478;55.682;37.462;2022-07-05T13:40:34;11.30;;;8.45;;
51384;SDS011;37478;55.682;37.462;2022-07-05T13:43:00;12.88;;;9.05;;
51384;SDS011;37478;55.682;37.462;2022-07-05T13:45:25;17.13;;;9.40;;
51384;SDS011;37478;55.682;37.462;2022-07-05T13:47:51;16.27;;;10.82;;
51384;SDS011;37478;55.682;37.462;2022-07-05T13:50:16;17.08;;;11.32;;
51384;SDS011;37478;55.682;37.462;2022-07-05T13:53:00;15.57;;;11.68;;
51384;SDS011;37478;55.682;37.462;2022-07-05T13:55:25;17.00;;;11.50;;
51384;SDS011;37478;55.682;37.462;2022-07-05T13:57:50;14.75;;;10.18;;
51384;SDS011;37478;55.682;37.462;2022-07-05T14:00:16;18.48;;;11.70;;
51384;SDS011;37478;55.682;37.462;2022-07-05T14:02:42;18.05;;;12.13;;
51384;SDS011;37478;55.682;37.462;2022-07-05T14:05:07;16.73;;;11.20;;
51384;SDS011;37478;55.682;37.462;2022-07-05T14:07:33;16.27;;;12.13;;
51384;SDS011;37478;55.682;37.462;2022-07-05T14:09:58;16.73;;;9.98;;
51384;SDS011;37478;55.682;37.462;2022-07-05T14:12:23;16.85;;;9.57;;
51384;SDS011;37478;55.682;37.462;2022-07-05T14:14:49;13.85;;;11.10;;
51384;SDS011;37478;55.682;37.462;2022-07-05T14:17:14;14.02;;;10.23;;
51384;SDS011;37478;55.682;37.462;2022-07-05T14:19:39;17.30;;;10.68;;
51384;SDS011;37478;55.682;37.462;2022-07-05T14:22:05;17.38;;;10.30;;
51384;SDS011;37478;55.682;37.462;2022-07-05T14:24:30;15.60;;;10.00;;
51384;SDS011;37478;55.682;37.462;2022-07-05T14:26:55;14.38;;;10.50;;
51384;SDS011;37478;55.682;37.462;2022-07-05T14:29:21;16.70;;;11.10;;
51384;SDS011;37478;55.682;37.462;2022-07-05T14:31:46;16.08;;;11.13;;
51384;SDS011;37478;55.682;37.462;2022-07-05T14:34:11;13.13;;;10.20;;
51384;SDS011;37478;55.682;37.462;2022-07-05T14:36:37;16.40;;;10.32;;
51384;SDS011;37478;55.682;37.462;2022-07-05T14:39:02;14.63;;;10.38;;
51384;SDS011;37478;55.682;37.462;2022-07-05T14:41:27;17.25;;;9.88;;
51384;SDS011;37478;55.682;37.462;2022-07-05T14:43:53;14.82;;;10.50;;
51384;SDS011;37478;55.682;37.462;2022-07-05T14:46:19;14.63;;;8.40;;
51384;SDS011;37478;55.682;37.462;2022-07-05T14:48:44;11.98;;;8.32;;
51384;SDS011;37478;55.682;37.462;2022-07-05T14:51:10;14.60;;;8.30;;
51384;SDS011;37478;55.682;37.462;2022-07-05T14:53:35;9.23;;;5.95;;